33分钟前
罗盘
风向 的 风向 的 风向 到 风向 100° Stuttgart Airport 7/25
风: 4 千吨, 2 beaufort
0 0 0.17778093859221 500 0.32299085377319 1.500 0.47075341907445 3.000 0.62138884920159 5.000 0.8022287624727 8.000 0.90566318494517 10.000
OVC 700 ft
METAR EDDS 180950Z 10004KT 070V140 9999 OVC007 08/06 Q1026 BECMG SCT010

METAR定义 | 嵌入

24小时趋势

航班类别VFRLIFR
温度13 °C6 °C
风速9 千吨0 千吨
能见度10 公里+0 米

更多历史数据

下载我们的安卓应用程序

从你的主屏幕上轻松地访问你的航空天气。
只需一次付费,您就可以获得无广告的体验。

您会帮助我们保持Metar-Taf.com正常运行吗?
您的贡献有助于网站的进一步开发并支付费用。

没有更多广告

您是捐款5美元还是更多?然后,我们将永远不会再向您展示广告,这是我们永恒的感谢!
捐赠前先登录

METAR Stuttgart Airport

Stuttgart Airport是Stuttgart,德国中的大型机场。 机场有{a,plural,=1{一条跑道} other{#跑道}}: 7/25

该报告是针对2021年10月18日 11:50, 当地时间上的Stuttgart Airport所做的。

机场观察

风来自东 (100°)方向,速度为4 千吨。 风向在东北东 (070°)和南东 (140°)之间变化。

可见度为10 公里 或者更多。

有乌云密布在700 ft的高度。 破损或更高的上限为700 ft。

温度为8 °C,阵风为5 °C。 露点为6 °C,相对湿度为87%。 海平面上的气压为1026 压力 (QNH)。

发展趋势

  • 变得

    可变方向的风很小或没有。 疏云,零星散落的云朵在1.000 ft的高度.

白天

今天,太阳从07:48升起,在18:28降落。 这适用于Stuttgart Airport,世界夏令时可能有所不同。 当地时间与世界标准时间之间的时差为+2 小时。 夏令时目前正在进行中。

公司介绍

在这个机场,你可以找到飞行学校。 本场上唯一已知的公司是Flugbetrieb Aero Beta。

体会

到Vliegles.nl去找飞行课程,跳伞和其他飞行体验。 浏览页面,了解Stuttgart Airport附近所有可用的活动。 你也可以使用搜索功能来寻找你所在地附近的特定飞行课程、跳伞或其他飞行体验。

您是否要在网站上Stuttgart Airport飞行的天气? 阅读更多   自由!